createdAt,value
2017-10-15T07:09:30.034Z,17.2
2017-10-15T07:10:33.050Z,17.6
2017-10-15T07:11:34.446Z,17.7
2017-10-15T07:12:36.624Z,17.9
2017-10-15T07:13:38.056Z,18.1
2017-10-15T07:14:40.140Z,18.4
2017-10-15T07:15:42.257Z,18.5
2017-10-15T07:16:43.695Z,18.8
2017-10-15T07:17:45.549Z,19.0
2017-10-15T07:18:47.629Z,19.3
2017-10-15T07:19:49.861Z,19.3
2017-10-15T07:20:51.771Z,19.5
2017-10-15T07:21:53.807Z,19.7
2017-10-15T07:22:55.833Z,19.8
2017-10-15T07:23:57.269Z,19.9
2017-10-15T07:24:59.200Z,20.0
2017-10-15T07:26:01.355Z,20.0
2017-10-15T07:27:02.849Z,20.2
2017-10-15T07:28:04.282Z,20.3
2017-10-15T07:29:05.718Z,20.4
2017-10-15T07:30:07.563Z,20.5
2017-10-15T07:31:09.721Z,20.5
2017-10-15T07:32:11.680Z,20.4
2017-10-15T07:33:13.509Z,20.5
2017-10-15T07:34:15.299Z,20.6
2017-10-15T07:35:17.077Z,20.7
2017-10-15T07:36:18.980Z,20.9
2017-10-15T07:37:21.159Z,21.1
2017-10-15T07:38:22.774Z,21.2
2017-10-15T07:39:24.230Z,21.1
2017-10-15T07:40:26.070Z,21.2
2017-10-15T07:41:28.012Z,21.4
2017-10-15T07:42:29.517Z,21.3
2017-10-15T07:43:31.302Z,21.3
2017-10-15T07:44:33.326Z,21.5
2017-10-15T07:45:35.270Z,21.4
2017-10-15T07:46:37.157Z,21.4
2017-10-15T07:47:38.890Z,21.6
2017-10-15T07:48:40.385Z,21.6
2017-10-15T07:49:42.343Z,21.7
2017-10-15T07:50:44.064Z,21.8
2017-10-15T07:51:46.363Z,21.9
2017-10-15T07:52:48.508Z,21.8
2017-10-15T07:53:50.722Z,21.9
2017-10-15T07:54:52.946Z,21.7
2017-10-15T07:55:55.244Z,21.7
2017-10-15T07:56:57.479Z,22.0
2017-10-15T07:57:59.634Z,22.0
2017-10-15T07:59:01.675Z,22.0
2017-10-15T08:00:03.802Z,22.0
2017-10-15T08:01:06.124Z,22.1
2017-10-15T08:02:08.058Z,22.1
2017-10-15T08:03:10.096Z,22.2
2017-10-15T08:04:12.252Z,22.2
2017-10-15T08:05:14.216Z,22.4
2017-10-15T08:06:15.810Z,22.4
2017-10-15T08:07:17.938Z,22.5
2017-10-15T08:08:19.971Z,22.5
2017-10-15T08:09:21.452Z,22.7
2017-10-15T08:10:22.989Z,22.9
2017-10-15T08:11:25.082Z,23.0
2017-10-15T08:12:27.969Z,23.1
2017-10-15T08:13:29.993Z,23.1
2017-10-15T08:14:31.956Z,23.2
2017-10-15T08:15:33.771Z,23.2
2017-10-15T08:16:35.534Z,23.4
2017-10-15T08:17:37.640Z,23.5
2017-10-15T08:18:39.590Z,23.9
2017-10-15T08:19:41.057Z,23.9
2017-10-15T08:20:42.539Z,23.9
2017-10-15T08:21:44.013Z,24.1
2017-10-15T08:22:46.220Z,24.1
2017-10-15T08:23:48.406Z,24.1
2017-10-15T08:24:50.016Z,24.3
2017-10-15T08:25:52.303Z,24.5
2017-10-15T08:26:53.910Z,24.8
2017-10-15T08:27:55.335Z,25.0
2017-10-15T08:28:56.727Z,25.2
2017-10-15T08:29:58.479Z,25.4
2017-10-15T08:31:00.477Z,25.7
2017-10-15T08:32:02.660Z,26.0
2017-10-15T08:33:04.639Z,26.3
2017-10-15T08:34:06.289Z,26.4
2017-10-15T08:35:07.880Z,26.5
2017-10-15T08:36:09.826Z,26.8
2017-10-15T08:37:11.899Z,27.0
2017-10-15T08:38:13.953Z,27.1
2017-10-15T08:39:15.534Z,27.2
2017-10-15T08:40:17.686Z,27.3
2017-10-15T08:41:19.518Z,27.4
2017-10-15T08:42:21.607Z,27.4
2017-10-15T08:43:23.617Z,27.4
2017-10-15T08:44:25.298Z,27.5
2017-10-15T08:45:27.066Z,27.3
2017-10-15T08:46:28.596Z,27.5
2017-10-15T08:47:30.236Z,27.2
2017-10-15T08:48:32.863Z,27.2
2017-10-15T08:49:34.400Z,27.2
2017-10-15T08:50:35.935Z,27.1
2017-10-15T08:51:37.443Z,27.2
2017-10-15T08:52:39.515Z,27.1
2017-10-15T08:53:41.341Z,27.1
2017-10-15T08:54:43.017Z,27.0
2017-10-15T08:55:44.797Z,26.9
2017-10-15T08:56:46.944Z,26.8
2017-10-15T08:57:48.816Z,26.9
2017-10-15T08:58:50.438Z,26.9
2017-10-15T08:59:52.226Z,26.9
2017-10-15T09:00:53.784Z,26.5
2017-10-15T09:01:55.368Z,26.5
2017-10-15T09:02:57.222Z,26.5
2017-10-15T09:03:58.782Z,26.6
2017-10-15T09:05:00.770Z,26.5
2017-10-15T09:06:02.225Z,26.5
2017-10-15T09:07:03.837Z,26.6
2017-10-15T09:08:05.714Z,27.1
2017-10-15T09:09:07.222Z,27.4
2017-10-15T09:10:08.880Z,27.8
2017-10-15T09:11:10.739Z,27.7
2017-10-15T09:12:12.596Z,27.7
2017-10-15T09:13:14.283Z,27.8
2017-10-15T09:14:15.990Z,28.1
2017-10-15T09:15:17.728Z,28.3
2017-10-15T09:16:19.691Z,28.3
2017-10-15T09:17:21.741Z,28.4
2017-10-15T09:18:23.918Z,28.6
2017-10-15T09:19:25.489Z,28.7
2017-10-15T09:20:27.429Z,28.6
2017-10-15T09:21:28.975Z,28.4
2017-10-15T09:22:30.482Z,28.5
2017-10-15T09:23:31.998Z,28.8
2017-10-15T09:24:33.618Z,28.6
2017-10-15T09:25:35.239Z,28.8
2017-10-15T09:26:36.715Z,29.3
2017-10-15T09:27:38.148Z,29.3
2017-10-15T09:28:39.790Z,28.9
2017-10-15T09:29:41.304Z,29.3
2017-10-15T09:30:42.804Z,29.4
2017-10-15T09:31:44.256Z,29.5
2017-10-15T09:32:45.786Z,29.5
2017-10-15T09:33:47.666Z,29.4
2017-10-15T09:34:49.456Z,29.5
2017-10-15T09:35:51.496Z,29.8
2017-10-15T09:36:53.402Z,29.7
2017-10-15T09:37:54.988Z,29.9
2017-10-15T09:38:56.700Z,29.8
2017-10-15T09:39:58.250Z,29.9
2017-10-15T09:40:59.693Z,29.8
2017-10-15T09:42:01.133Z,29.6
2017-10-15T09:43:02.724Z,29.7
2017-10-15T09:44:04.756Z,29.8
2017-10-15T09:45:06.916Z,29.9
2017-10-15T09:46:08.408Z,29.9
2017-10-15T09:47:10.282Z,29.9
2017-10-15T09:48:12.236Z,30.2
2017-10-15T09:49:14.344Z,30.3
2017-10-15T09:50:16.306Z,30.3
2017-10-15T09:51:17.855Z,30.6
2017-10-15T09:53:00.786Z,30.8
2017-10-15T09:54:03.937Z,30.9
2017-10-15T09:55:05.379Z,30.5
2017-10-15T09:56:07.527Z,30.7
2017-10-15T09:57:09.382Z,30.5
2017-10-15T09:58:11.008Z,30.7
2017-10-15T09:59:12.582Z,30.6
2017-10-15T10:00:14.109Z,30.7
2017-10-15T10:01:16.039Z,30.6
2017-10-15T10:02:18.197Z,30.6
2017-10-15T10:03:20.321Z,31.0
2017-10-15T10:04:22.054Z,30.7
2017-10-15T10:05:24.009Z,30.4
2017-10-15T10:06:25.521Z,30.5
2017-10-15T10:07:27.073Z,30.4
2017-10-15T10:08:28.618Z,30.5
2017-10-15T10:09:30.453Z,30.6
2017-10-15T10:10:32.036Z,30.5
2017-10-15T10:11:33.534Z,30.6
2017-10-15T10:12:35.208Z,31.1
2017-10-15T10:13:36.883Z,31.2
2017-10-15T10:14:38.718Z,31.1
2017-10-15T10:15:40.356Z,31.1
2017-10-15T10:16:41.792Z,31.5
2017-10-15T10:17:43.777Z,31.6
2017-10-15T10:18:45.338Z,31.3
2017-10-15T10:19:46.830Z,31.6
2017-10-15T10:20:48.389Z,31.8
2017-10-15T10:21:49.942Z,32.1
2017-10-15T10:22:51.386Z,32.1
2017-10-15T10:23:52.920Z,32.1
2017-10-15T10:24:55.098Z,32.3
2017-10-15T10:25:56.596Z,32.6
2017-10-15T10:26:58.103Z,32.5
2017-10-15T10:27:59.667Z,32.5
2017-10-15T10:29:01.217Z,32.4
2017-10-15T10:30:03.458Z,32.5
2017-10-15T10:31:05.627Z,32.4
2017-10-15T10:32:07.141Z,32.8
2017-10-15T10:33:09.427Z,32.8
2017-10-15T10:34:10.984Z,32.7
2017-10-15T10:35:12.481Z,33.1
2017-10-15T10:36:13.978Z,33.0
2017-10-15T10:37:15.854Z,33.0
2017-10-15T10:38:17.373Z,32.9
2017-10-15T10:39:19.241Z,33.0
2017-10-15T10:40:21.303Z,33.2
2017-10-15T10:41:23.174Z,33.3
2017-10-15T10:42:24.898Z,33.5
2017-10-15T10:43:27.028Z,33.7
2017-10-15T10:44:29.189Z,33.5
2017-10-15T10:46:12.185Z,33.6
2017-10-15T10:47:17.086Z,33.5
2017-10-15T10:48:18.571Z,33.5
2017-10-15T10:49:20.003Z,33.8
2017-10-15T10:50:21.620Z,33.9
2017-10-15T10:51:23.303Z,34.1
2017-10-15T10:52:25.066Z,34.2
2017-10-15T10:53:26.588Z,34.5
2017-10-15T10:54:28.556Z,34.9
2017-10-15T10:55:30.817Z,34.8
2017-10-15T10:56:32.502Z,34.8
2017-10-15T10:57:34.665Z,34.5
2017-10-15T10:58:36.474Z,34.3
2017-10-15T10:59:38.118Z,34.0
2017-10-15T11:00:39.544Z,33.8
2017-10-15T11:01:41.042Z,34.1
2017-10-15T11:02:42.497Z,34.3
2017-10-15T11:03:44.055Z,34.5
2017-10-15T11:04:45.966Z,34.5
2017-10-15T11:05:47.641Z,34.8
2017-10-15T11:06:49.118Z,34.8
2017-10-15T11:07:50.962Z,34.4
2017-10-15T11:08:52.492Z,34.5
2017-10-15T11:09:54.254Z,34.8
2017-10-15T11:10:56.092Z,35.2
2017-10-15T11:11:57.562Z,35.2
2017-10-15T11:12:59.016Z,35.0
2017-10-15T11:14:00.601Z,35.2
2017-10-15T11:15:02.181Z,35.7
2017-10-15T11:16:04.348Z,35.6
2017-10-15T11:17:06.087Z,35.6
2017-10-15T11:18:08.137Z,35.4
2017-10-15T11:19:10.377Z,35.5
2017-10-15T11:20:11.841Z,35.2
2017-10-15T11:21:13.375Z,35.5
2017-10-15T11:22:14.886Z,35.1
2017-10-15T11:23:16.995Z,35.1
2017-10-15T11:24:18.523Z,35.1
2017-10-15T11:25:20.002Z,35.2
2017-10-15T11:26:21.607Z,35.2
2017-10-15T11:27:23.061Z,35.3
2017-10-15T11:28:24.511Z,35.4
2017-10-15T11:29:25.985Z,35.5
2017-10-15T11:30:27.518Z,35.7
2017-10-15T11:31:29.351Z,35.8
2017-10-15T11:32:30.926Z,35.8
2017-10-15T11:33:32.428Z,36.1
2017-10-15T11:34:33.944Z,36.2
2017-10-15T11:35:35.501Z,36.0
2017-10-15T11:36:37.419Z,36.1
2017-10-15T11:37:38.873Z,36.2
2017-10-15T11:38:40.375Z,36.0
2017-10-15T11:39:41.821Z,35.9
2017-10-15T11:40:43.298Z,35.6
2017-10-15T11:41:44.739Z,35.5
2017-10-15T11:42:46.219Z,35.4
2017-10-15T11:43:48.403Z,35.1
2017-10-15T11:44:50.260Z,35.1
2017-10-15T11:45:51.799Z,35.1
2017-10-15T11:46:53.241Z,35.3
2017-10-15T11:47:55.341Z,35.6
2017-10-15T11:48:57.436Z,35.3
2017-10-15T11:49:58.951Z,35.2
2017-10-15T11:51:00.643Z,35.4
2017-10-15T11:52:02.318Z,35.5
2017-10-15T11:53:03.810Z,35.5
2017-10-15T11:54:05.437Z,35.1
2017-10-15T11:55:07.618Z,34.7
2017-10-15T11:56:09.105Z,34.7
2017-10-15T11:57:10.587Z,35.0
2017-10-15T11:58:12.398Z,34.8
2017-10-15T11:59:14.076Z,34.8
2017-10-15T12:00:15.558Z,34.8
2017-10-15T12:01:17.732Z,34.9
2017-10-15T12:02:19.285Z,34.7
2017-10-15T12:03:20.796Z,35.0
2017-10-15T12:04:22.599Z,34.9
2017-10-15T12:05:24.048Z,35.1
2017-10-15T12:06:25.983Z,35.4
2017-10-15T12:07:28.285Z,35.6
2017-10-15T12:08:29.752Z,35.7
2017-10-15T12:09:31.187Z,35.8
2017-10-15T12:10:32.612Z,35.8
2017-10-15T12:11:34.812Z,35.9
2017-10-15T12:12:36.386Z,36.1
2017-10-15T12:13:38.023Z,36.1
2017-10-15T12:14:39.492Z,36.1
2017-10-15T12:15:41.775Z,35.7
2017-10-15T12:16:43.824Z,35.9
2017-10-15T12:17:45.310Z,36.0
2017-10-15T12:18:47.456Z,36.1
2017-10-15T12:19:49.534Z,36.1
2017-10-15T12:20:51.478Z,36.2
2017-10-15T12:21:53.213Z,36.2
2017-10-15T12:22:54.595Z,36.2
2017-10-15T12:23:56.003Z,36.0
2017-10-15T12:24:57.400Z,36.1
2017-10-15T12:25:58.800Z,36.1
2017-10-15T12:27:00.218Z,36.1
2017-10-15T12:28:02.174Z,36.1
2017-10-15T12:29:03.567Z,36.2
2017-10-15T12:30:04.968Z,36.4
2017-10-15T12:31:06.393Z,36.2
2017-10-15T12:32:07.789Z,36.2
2017-10-15T12:33:09.193Z,36.2
2017-10-15T12:34:10.639Z,36.2
2017-10-15T12:35:12.060Z,35.7
2017-10-15T12:36:13.468Z,35.3
2017-10-15T12:37:14.880Z,35.2
2017-10-15T12:38:16.311Z,35.1
2017-10-15T12:39:17.710Z,35.2
2017-10-15T12:40:19.126Z,35.2
2017-10-15T12:41:20.600Z,35.6
2017-10-15T12:42:22.005Z,35.5
2017-10-15T12:43:23.411Z,35.8
2017-10-15T12:44:24.811Z,36.1
2017-10-15T12:45:26.233Z,35.9
2017-10-15T12:46:27.625Z,36.3
2017-10-15T12:47:29.024Z,35.7
2017-10-15T12:48:30.422Z,35.3
2017-10-15T12:49:31.821Z,35.5
2017-10-15T12:50:33.282Z,35.8
2017-10-15T12:51:34.678Z,36.0
2017-10-15T12:52:36.076Z,35.9
2017-10-15T12:53:37.473Z,35.9
2017-10-15T12:54:38.869Z,36.0
2017-10-15T12:55:40.273Z,35.6
2017-10-15T12:56:41.667Z,35.7
2017-10-15T12:57:43.062Z,35.8
2017-10-15T12:58:44.458Z,35.9
2017-10-15T12:59:45.856Z,35.9
2017-10-15T13:00:47.255Z,36.1
2017-10-15T13:01:48.652Z,36.2
2017-10-15T13:02:50.058Z,35.9
2017-10-15T13:03:51.465Z,35.9
2017-10-15T13:04:52.849Z,35.9
2017-10-15T13:05:54.251Z,36.2
2017-10-15T13:06:55.678Z,36.1
2017-10-15T13:07:57.068Z,35.9
2017-10-15T13:08:58.463Z,35.8
2017-10-15T13:09:59.861Z,35.5
2017-10-15T13:11:01.257Z,35.5
2017-10-15T13:12:02.653Z,35.7
2017-10-15T13:13:04.051Z,35.7
2017-10-15T13:14:05.606Z,35.7
2017-10-15T13:15:07.064Z,35.6
2017-10-15T13:16:08.542Z,35.3
2017-10-15T13:17:09.940Z,35.2
2017-10-15T13:18:11.356Z,35.3
2017-10-15T13:19:12.753Z,35.3
2017-10-15T13:20:14.154Z,35.2
2017-10-15T13:21:15.558Z,35.4
2017-10-15T13:22:16.969Z,35.6
2017-10-15T13:23:18.364Z,35.5
2017-10-15T13:24:19.764Z,35.4
2017-10-15T13:25:21.153Z,35.6
2017-10-15T13:26:22.556Z,35.7
2017-10-15T13:27:23.961Z,35.5
2017-10-15T13:28:25.373Z,35.5
2017-10-15T13:29:26.767Z,35.7
2017-10-15T13:30:28.164Z,35.9
2017-10-15T13:31:29.567Z,35.9
2017-10-15T13:32:30.985Z,36.1
2017-10-15T13:33:32.382Z,36.0
2017-10-15T13:34:33.776Z,36.0
2017-10-15T13:35:35.200Z,36.2
2017-10-15T13:36:36.578Z,36.2
2017-10-15T13:37:37.997Z,36.2
2017-10-15T13:38:39.384Z,36.2
2017-10-15T13:39:40.795Z,36.3
2017-10-15T13:40:42.200Z,36.2
2017-10-15T13:41:43.589Z,35.9
2017-10-15T13:42:44.992Z,35.8
2017-10-15T13:43:46.399Z,35.9
2017-10-15T13:44:47.798Z,35.9
2017-10-15T13:45:49.195Z,36.0
2017-10-15T13:46:50.607Z,36.0
2017-10-15T13:47:52.003Z,35.9
2017-10-15T13:48:53.400Z,35.9
2017-10-15T13:49:54.794Z,35.9
2017-10-15T13:50:56.207Z,35.8
2017-10-15T13:51:57.617Z,35.7
2017-10-15T13:52:59.011Z,35.7
2017-10-15T13:54:00.433Z,35.6
2017-10-15T13:55:01.827Z,35.6
2017-10-15T13:56:03.234Z,35.3
2017-10-15T13:57:04.628Z,35.5
2017-10-15T13:58:06.033Z,35.5
2017-10-15T13:59:07.431Z,35.5
2017-10-15T14:00:08.823Z,35.5
2017-10-15T14:01:10.220Z,35.3
2017-10-15T14:02:11.611Z,35.4
2017-10-15T14:03:13.009Z,35.4
2017-10-15T14:04:14.403Z,35.3
2017-10-15T14:05:15.796Z,34.8
2017-10-15T14:06:17.207Z,34.6
2017-10-15T14:07:18.605Z,34.8
2017-10-15T14:08:20.009Z,34.8
2017-10-15T14:09:21.404Z,34.8
2017-10-15T14:10:22.821Z,34.5
2017-10-15T14:11:24.218Z,34.6
2017-10-15T14:12:25.614Z,34.4
2017-10-15T14:13:27.015Z,34.2
2017-10-15T14:14:28.409Z,34.3
2017-10-15T14:15:29.807Z,34.4
2017-10-15T14:16:31.203Z,34.2
2017-10-15T14:17:32.599Z,34.2
2017-10-15T14:18:33.992Z,34.4
2017-10-15T14:19:35.393Z,34.0
2017-10-15T14:20:36.781Z,34.1
2017-10-15T14:21:38.180Z,34.2
2017-10-15T14:22:39.568Z,34.1
2017-10-15T14:23:41.000Z,34.0
2017-10-15T14:24:42.394Z,33.7
2017-10-15T14:25:43.787Z,33.8
2017-10-15T14:26:45.180Z,33.8
2017-10-15T14:27:46.587Z,33.8
2017-10-15T14:28:47.987Z,33.8
2017-10-15T14:29:49.371Z,33.7
2017-10-15T14:30:50.800Z,33.8
2017-10-15T14:31:52.180Z,33.9
2017-10-15T14:32:53.569Z,34.0
2017-10-15T14:33:54.963Z,34.1
2017-10-15T14:34:56.366Z,34.1
2017-10-15T14:35:57.770Z,34.0
2017-10-15T14:36:59.149Z,34.2
2017-10-15T14:38:00.551Z,34.2
2017-10-15T14:39:01.942Z,34.2
2017-10-15T14:40:03.334Z,34.2
2017-10-15T14:41:04.727Z,34.2
2017-10-15T14:42:06.118Z,34.1
2017-10-15T14:43:07.512Z,34.0
2017-10-15T14:44:08.912Z,33.9
2017-10-15T14:45:10.302Z,34.0
2017-10-15T14:46:11.696Z,33.9
2017-10-15T14:47:13.082Z,33.7
2017-10-15T14:48:14.477Z,33.5
2017-10-15T14:49:15.889Z,33.2
2017-10-15T14:50:17.279Z,33.1
2017-10-15T14:51:18.670Z,32.9
2017-10-15T14:52:20.060Z,32.6
2017-10-15T14:53:21.454Z,32.4
2017-10-15T14:54:22.846Z,32.2
2017-10-15T14:55:24.238Z,31.8
2017-10-15T14:56:25.634Z,31.5
2017-10-15T14:57:27.028Z,31.4
2017-10-15T14:58:28.415Z,31.1
2017-10-15T14:59:29.813Z,30.9
2017-10-15T15:00:31.206Z,30.6
2017-10-15T15:01:32.582Z,30.4
2017-10-15T15:02:33.971Z,30.4
2017-10-15T15:03:35.363Z,30.2
2017-10-15T15:04:36.749Z,30.1
2017-10-15T15:05:38.139Z,29.9
2017-10-15T15:06:39.531Z,29.8
2017-10-15T15:07:40.928Z,29.6
2017-10-15T15:08:42.314Z,29.4
2017-10-15T15:09:43.700Z,29.3
2017-10-15T15:10:45.089Z,29.0
2017-10-15T15:11:46.484Z,28.9
2017-10-15T15:12:47.885Z,28.8
2017-10-15T15:13:49.254Z,28.6
2017-10-15T15:14:50.639Z,28.5
2017-10-15T15:15:52.028Z,28.4
2017-10-15T15:16:53.421Z,28.2
2017-10-15T15:17:54.799Z,28.0
2017-10-15T15:18:56.210Z,27.9
2017-10-15T15:19:57.592Z,27.9
2017-10-15T15:20:59.211Z,27.7
2017-10-15T15:22:00.603Z,27.5
2017-10-15T15:23:01.986Z,27.4
2017-10-15T15:24:03.376Z,27.3
2017-10-15T15:25:04.765Z,27.2
2017-10-15T15:26:06.157Z,27.1
2017-10-15T15:27:07.537Z,27.0
2017-10-15T15:28:08.936Z,27.0
2017-10-15T15:29:10.329Z,26.9
2017-10-15T15:30:11.729Z,26.8
2017-10-15T15:31:13.115Z,26.8
2017-10-15T15:32:14.511Z,26.7
2017-10-15T15:33:15.903Z,26.6
2017-10-15T15:34:17.295Z,26.5
2017-10-15T15:35:18.682Z,26.5
2017-10-15T15:36:20.480Z,26.3
2017-10-15T15:37:21.920Z,26.2
2017-10-15T15:38:23.305Z,26.1
2017-10-15T15:39:24.944Z,26.1
2017-10-15T15:40:26.855Z,26.0
2017-10-15T15:41:29.665Z,25.9
2017-10-15T15:42:31.393Z,25.9
2017-10-15T15:43:33.421Z,25.8
2017-10-15T15:44:36.284Z,25.6
2017-10-15T15:45:40.151Z,25.6
2017-10-15T15:46:41.801Z,25.5
2017-10-15T15:47:43.224Z,25.4
2017-10-15T15:48:44.598Z,25.3
2017-10-15T15:49:46.336Z,25.3
2017-10-15T15:50:47.808Z,25.3
2017-10-15T15:51:49.337Z,25.2
2017-10-15T15:52:51.314Z,25.1
2017-10-15T15:53:53.151Z,25.0
2017-10-15T15:54:54.525Z,24.9
2017-10-15T15:55:56.274Z,24.8
2017-10-15T15:56:57.682Z,24.9
2017-10-15T15:57:59.069Z,24.8
2017-10-15T15:59:00.474Z,24.8
2017-10-15T16:00:01.877Z,24.7
2017-10-15T16:01:03.263Z,24.7
2017-10-15T16:02:04.922Z,24.6
2017-10-15T16:03:06.313Z,24.5
2017-10-15T16:04:07.685Z,24.4
2017-10-15T16:05:09.090Z,24.5
2017-10-15T16:06:10.921Z,24.4
2017-10-15T16:07:12.624Z,24.3
2017-10-15T16:08:14.310Z,24.3
2017-10-15T16:09:16.050Z,24.1
2017-10-15T16:10:17.650Z,24.1
2017-10-15T16:11:19.407Z,24.0
2017-10-15T16:12:21.507Z,23.9
2017-10-15T16:13:22.734Z,23.9
2017-10-15T16:14:24.134Z,23.7
2017-10-15T16:15:26.000Z,23.6
2017-10-15T16:16:27.449Z,23.6
2017-10-15T16:17:28.856Z,23.5
2017-10-15T16:18:30.234Z,23.5
2017-10-15T16:19:31.701Z,23.2
2017-10-15T16:20:33.095Z,23.2
2017-10-15T16:21:34.524Z,23.1
2017-10-15T16:22:35.949Z,23.1
2017-10-15T16:23:37.325Z,23.1
2017-10-15T16:24:38.819Z,22.9
2017-10-15T16:25:40.232Z,22.8
2017-10-15T16:26:41.731Z,22.7
2017-10-15T16:27:43.266Z,22.6
2017-10-15T16:28:44.722Z,22.5
2017-10-15T16:29:46.179Z,22.4
2017-10-15T16:30:47.577Z,22.3
2017-10-15T16:31:48.976Z,22.2
2017-10-15T16:32:50.367Z,22.2
2017-10-15T16:33:51.764Z,22.1
2017-10-15T16:34:53.242Z,22.0
2017-10-15T16:35:54.850Z,21.9
2017-10-15T16:36:56.352Z,21.9
2017-10-15T16:37:57.768Z,21.9
2017-10-15T16:38:59.147Z,21.8
2017-10-15T16:40:00.529Z,21.7
2017-10-15T16:41:01.927Z,21.7
2017-10-15T16:42:03.340Z,21.7
2017-10-15T16:43:04.741Z,21.5
2017-10-15T16:44:06.204Z,21.4
2017-10-15T16:45:07.585Z,21.3
2017-10-15T16:46:09.021Z,21.2
2017-10-15T16:47:10.388Z,21.2
2017-10-15T16:48:11.825Z,21.1
2017-10-15T16:49:13.221Z,21.1
2017-10-15T16:50:14.632Z,21.1
2017-10-15T16:51:16.104Z,21.1
2017-10-15T16:52:17.483Z,21.1
2017-10-15T16:53:18.868Z,21.0
2017-10-15T16:54:20.295Z,21.0
2017-10-15T16:55:22.297Z,21.1
2017-10-15T16:56:23.679Z,20.9
2017-10-15T16:57:25.067Z,21.0
2017-10-15T16:58:26.533Z,20.9
2017-10-15T16:59:27.927Z,21.0
2017-10-15T17:00:29.300Z,20.9
2017-10-15T17:01:30.675Z,20.8
2017-10-15T17:02:32.109Z,20.8
2017-10-15T17:03:33.502Z,20.7
2017-10-15T17:04:34.890Z,20.6
2017-10-15T17:05:36.283Z,20.6
2017-10-15T17:06:37.658Z,20.5
2017-10-15T17:07:39.073Z,20.4
2017-10-15T17:08:40.449Z,20.4
2017-10-15T17:09:41.882Z,20.4
2017-10-15T17:10:43.256Z,20.3
2017-10-15T17:11:44.632Z,20.2
2017-10-15T17:12:46.032Z,20.2
2017-10-15T17:13:47.410Z,20.2
2017-10-15T17:14:48.787Z,20.2
2017-10-15T17:15:50.172Z,20.2
2017-10-15T17:16:51.585Z,20.2
2017-10-15T17:17:52.961Z,20.1
2017-10-15T17:18:54.433Z,20.1
2017-10-15T17:19:55.810Z,20.0
2017-10-15T17:20:57.217Z,20.1
2017-10-15T17:21:58.593Z,20.1
2017-10-15T17:22:59.990Z,20.1
2017-10-15T17:24:01.502Z,20.1
2017-10-15T17:25:02.883Z,20.1
2017-10-15T17:26:04.256Z,20.1
2017-10-15T17:27:05.646Z,20.1
2017-10-15T17:28:07.055Z,20.1
2017-10-15T17:29:08.435Z,20.2
2017-10-15T17:30:09.808Z,20.0
2017-10-15T17:31:11.311Z,20.1
2017-10-15T17:32:12.705Z,20.1
2017-10-15T17:33:14.099Z,20.1
2017-10-15T17:34:15.474Z,20.0
2017-10-15T17:35:16.955Z,20.1
2017-10-15T17:36:18.354Z,20.1
2017-10-15T17:37:19.820Z,20.0
2017-10-15T17:38:21.189Z,20.1
2017-10-15T17:39:22.581Z,20.0
2017-10-15T17:40:23.959Z,20.0
2017-10-15T17:41:25.368Z,20.0
2017-10-15T17:42:26.800Z,20.1
2017-10-15T17:43:28.188Z,20.0
2017-10-15T17:44:29.591Z,20.1
2017-10-15T17:45:31.042Z,20.1
2017-10-15T17:46:32.371Z,20.2
2017-10-15T17:47:33.745Z,20.2
2017-10-15T17:48:35.138Z,20.3
2017-10-15T17:49:36.556Z,20.3
2017-10-15T17:50:37.949Z,20.3
2017-10-15T17:51:39.333Z,20.4
2017-10-15T17:52:40.727Z,20.4
2017-10-15T17:53:42.114Z,20.5
2017-10-15T17:54:43.495Z,20.5
2017-10-15T17:55:44.875Z,20.4
2017-10-15T17:56:46.315Z,20.5
2017-10-15T17:57:47.672Z,20.6
2017-10-15T17:58:49.048Z,20.5
2017-10-15T17:59:50.442Z,20.5
2017-10-15T18:00:51.933Z,20.4
2017-10-15T18:01:53.313Z,20.3
2017-10-15T18:02:54.693Z,20.3
2017-10-15T18:03:56.089Z,20.4
2017-10-15T18:04:57.474Z,20.3
2017-10-15T18:05:58.855Z,20.3
2017-10-15T18:07:00.272Z,20.4
2017-10-15T18:08:01.780Z,20.4
2017-10-15T18:09:03.547Z,20.5
2017-10-15T18:10:05.478Z,20.4
2017-10-15T18:11:06.962Z,20.5
2017-10-15T18:12:08.389Z,20.4
2017-10-15T18:13:09.790Z,20.4
2017-10-15T18:14:11.186Z,20.4
2017-10-15T18:15:12.569Z,20.4
2017-10-15T18:16:13.975Z,20.3
2017-10-15T18:17:15.357Z,20.4
2017-10-15T18:18:16.849Z,20.4
2017-10-15T18:19:18.280Z,20.3
2017-10-15T18:20:19.724Z,20.4
2017-10-15T18:21:21.195Z,20.4
2017-10-15T18:22:22.619Z,20.3
2017-10-15T18:23:24.064Z,20.4
2017-10-15T18:24:25.495Z,20.4
2017-10-15T18:25:27.521Z,20.4
2017-10-15T18:26:29.233Z,20.5
2017-10-15T18:27:31.164Z,20.4
2017-10-15T18:28:32.764Z,20.5
2017-10-15T18:29:34.498Z,20.4
2017-10-15T18:30:36.424Z,20.4
2017-10-15T18:31:38.379Z,20.4
2017-10-15T18:32:40.110Z,20.3
2017-10-15T18:33:42.034Z,20.3
2017-10-15T18:34:43.419Z,20.4
2017-10-15T18:36:25.865Z,20.4
2017-10-15T18:37:27.317Z,20.4
2017-10-15T18:38:28.690Z,20.4
2017-10-15T18:39:30.064Z,20.4
2017-10-15T18:40:31.435Z,20.4
2017-10-15T18:41:32.829Z,20.3
2017-10-15T18:42:34.302Z,20.4
2017-10-15T18:43:36.245Z,20.4
2017-10-15T18:44:37.931Z,20.4
2017-10-15T18:45:39.700Z,20.3
2017-10-15T18:46:41.097Z,20.4
2017-10-15T18:47:42.553Z,20.2
2017-10-15T18:48:43.941Z,20.3
2017-10-15T18:49:45.567Z,20.3
2017-10-15T18:50:47.021Z,20.2
2017-10-15T18:51:48.406Z,20.3
2017-10-15T18:52:49.779Z,20.2
2017-10-15T18:53:51.292Z,20.2
2017-10-15T18:54:52.961Z,20.2
2017-10-15T18:55:54.851Z,20.2
2017-10-15T18:56:56.626Z,20.2
2017-10-15T18:57:58.152Z,20.2
2017-10-15T18:58:59.535Z,20.2
2017-10-15T19:00:01.018Z,20.2
2017-10-15T19:01:02.402Z,20.2
2017-10-15T19:02:03.780Z,20.2
2017-10-15T19:03:05.253Z,20.2
2017-10-15T19:04:06.669Z,20.2
2017-10-15T19:05:08.041Z,20.2
2017-10-15T19:06:09.460Z,20.2
2017-10-15T19:07:11.227Z,20.1
2017-10-15T19:08:12.632Z,20.1
2017-10-15T19:09:14.012Z,20.0
2017-10-15T19:10:15.836Z,20.1
2017-10-15T19:11:17.317Z,20.0
2017-10-15T19:12:18.733Z,20.0
2017-10-15T19:13:20.120Z,20.1
2017-10-15T19:14:21.601Z,20.0
2017-10-15T19:15:22.992Z,20.0
2017-10-15T19:16:24.374Z,20.0
2017-10-15T19:17:25.756Z,20.0
2017-10-15T19:18:27.220Z,20.0
2017-10-15T19:19:28.635Z,20.0
2017-10-15T19:20:29.996Z,20.0
2017-10-15T19:21:31.611Z,19.8
2017-10-15T19:22:33.310Z,20.0
2017-10-15T19:23:35.217Z,19.9
2017-10-15T19:24:36.962Z,19.8
2017-10-15T19:25:38.778Z,19.8
2017-10-15T19:26:40.216Z,19.8
2017-10-15T19:27:41.657Z,19.8
2017-10-15T19:28:43.053Z,19.8
2017-10-15T19:29:44.487Z,19.8
2017-10-15T19:30:45.879Z,19.8
2017-10-15T19:31:47.652Z,19.8
2017-10-15T19:32:49.330Z,19.7
2017-10-15T19:33:51.098Z,19.7
2017-10-15T19:34:52.898Z,19.7
2017-10-15T19:35:54.594Z,19.6
2017-10-15T19:36:56.383Z,19.6
2017-10-15T19:37:58.177Z,19.6
2017-10-15T19:38:59.584Z,19.7
2017-10-15T19:40:42.312Z,19.6
2017-10-15T19:41:43.615Z,19.6
2017-10-15T19:42:44.986Z,19.6
2017-10-15T19:43:46.378Z,19.7
2017-10-15T19:44:47.775Z,19.6
2017-10-15T19:45:49.313Z,19.5
2017-10-15T19:46:51.074Z,19.5
2017-10-15T19:47:52.550Z,19.4
2017-10-15T19:48:54.807Z,19.5
2017-10-15T19:49:56.530Z,19.5
2017-10-15T19:50:57.921Z,19.4
2017-10-15T19:51:59.322Z,19.5
2017-10-15T19:53:00.740Z,19.5
2017-10-15T19:54:02.205Z,19.5
2017-10-15T19:55:03.627Z,19.4
2017-10-15T19:56:46.002Z,19.4
2017-10-15T19:57:47.380Z,19.3
2017-10-15T19:58:48.754Z,19.4
2017-10-15T19:59:50.132Z,19.3
2017-10-15T20:00:52.044Z,19.2
2017-10-15T20:01:53.540Z,19.3
2017-10-15T20:02:54.905Z,19.3
2017-10-15T20:04:36.269Z,19.4
2017-10-15T20:05:37.649Z,19.4
2017-10-15T20:06:39.017Z,19.3
2017-10-15T20:07:40.849Z,19.5
2017-10-15T20:08:42.642Z,19.3
2017-10-15T20:09:44.056Z,19.4
2017-10-15T20:10:45.469Z,19.3
2017-10-15T20:11:46.890Z,19.3
2017-10-15T20:12:48.327Z,19.3
2017-10-15T20:13:49.745Z,19.4
2017-10-15T20:14:51.126Z,19.2
2017-10-15T20:15:52.526Z,19.3
2017-10-15T20:16:54.600Z,19.2
2017-10-15T20:17:56.009Z,19.3
2017-10-15T20:18:57.419Z,19.3
2017-10-15T20:19:58.830Z,19.2
2017-10-15T20:21:41.200Z,19.2
2017-10-15T20:22:42.571Z,19.2
2017-10-15T20:23:43.939Z,19.2
2017-10-15T20:24:45.471Z,19.2
2017-10-15T20:25:46.856Z,19.2
2017-10-15T20:26:48.231Z,19.3
2017-10-15T20:27:49.603Z,19.1
2017-10-15T20:28:50.984Z,19.3
2017-10-15T20:30:33.520Z,19.2
2017-10-15T20:31:34.881Z,19.2
2017-10-15T20:32:36.259Z,19.2
2017-10-15T20:33:37.635Z,19.2
2017-10-15T20:34:39.435Z,19.2
2017-10-15T20:35:40.978Z,19.3
2017-10-15T20:36:42.647Z,19.3
2017-10-15T20:37:44.066Z,19.2
2017-10-15T20:38:45.442Z,19.3
2017-10-15T20:40:27.816Z,19.3
2017-10-15T20:41:29.754Z,19.3
2017-10-15T20:42:31.090Z,19.4
2017-10-15T20:43:32.466Z,19.4
2017-10-15T20:44:34.320Z,19.4
2017-10-15T20:45:35.986Z,19.3
2017-10-15T20:46:38.089Z,19.3
2017-10-15T20:47:39.963Z,19.3
2017-10-15T20:48:41.406Z,19.4
2017-10-15T20:49:42.872Z,19.4
2017-10-15T20:50:44.229Z,19.3
2017-10-15T20:51:45.647Z,19.3
2017-10-15T20:52:47.035Z,19.3
2017-10-15T20:53:48.544Z,19.2
2017-10-15T20:54:49.978Z,19.2